Skyline Lakes, New Jersey
Current Conditions -  °F | °C
As of 10:53 AM on Thursday 18 Dec 2014 (Local Time) from KCDW Reporting Station
Overcast Overcast  
Wind Chill: -1°   Ceiling: 3800
Heat Index:   Visibility: 10mi
Dew Point: -6°   Wind: 13mph
Humidity: 53%   Direction: 300°WNW
Pressure: 29.99"   Gusts: 23mph
Location:  41.1036°N, 74.2801°W
Report Text: KCDW 181553Z AUTO 30011G20KT 10SM OVC038 03/M06 A2999 RMK AO2 SLP163 T00331056 TSNO
Loading
Personal Weather Stations






























Interactive Weather Map New forecast layout! Learn more

10-Day Weather Forecast

Advertisements
Track Severe Weather on mobile